createdAt,value
2023-03-17T00:00:59.826Z,1.70
2023-03-17T00:03:31.539Z,1.70
2023-03-17T00:06:03.877Z,1.70
2023-03-17T00:08:36.162Z,1.70
2023-03-17T00:11:10.616Z,1.70
2023-03-17T00:13:41.616Z,1.68
2023-03-17T00:16:17.824Z,1.60
2023-03-17T00:18:48.937Z,1.56
2023-03-17T00:21:25.824Z,1.50
2023-03-17T00:23:59.611Z,1.50
2023-03-17T00:26:29.963Z,1.50
2023-03-17T00:29:00.113Z,1.46
2023-03-17T00:31:30.519Z,1.40
2023-03-17T00:33:59.983Z,1.40
2023-03-17T00:36:32.971Z,1.30
2023-03-17T00:39:16.885Z,1.30
2023-03-17T00:41:49.573Z,1.20
2023-03-17T00:44:19.715Z,1.14
2023-03-17T00:46:49.421Z,1.10
2023-03-17T00:49:22.957Z,1.06
2023-03-17T00:51:53.922Z,1.00
2023-03-17T00:54:24.616Z,1.00
2023-03-17T00:56:55.106Z,0.90
2023-03-17T00:59:29.720Z,0.90
2023-03-17T01:02:00.289Z,0.90
2023-03-17T01:04:30.946Z,0.90
2023-03-17T01:07:01.525Z,0.82
2023-03-17T01:09:30.310Z,0.80
2023-03-17T01:12:01.165Z,0.80
2023-03-17T01:14:30.159Z,0.80
2023-03-17T01:17:02.719Z,0.80
2023-03-17T01:19:32.739Z,0.80
2023-03-17T01:22:02.725Z,0.80
2023-03-17T01:24:33.049Z,0.80
2023-03-17T01:27:02.926Z,0.80
2023-03-17T01:29:32.816Z,0.80
2023-03-17T01:32:03.549Z,0.80
2023-03-17T01:34:33.344Z,0.80
2023-03-17T01:37:03.222Z,0.80
2023-03-17T01:39:33.001Z,0.80
2023-03-17T01:42:02.956Z,0.90
2023-03-17T01:44:32.990Z,0.90
2023-03-17T01:47:02.781Z,0.90
2023-03-17T01:49:36.992Z,0.90
2023-03-17T01:52:12.144Z,0.90
2023-03-17T01:54:47.735Z,0.90
2023-03-17T01:57:22.791Z,0.90
2023-03-17T01:59:55.968Z,0.90
2023-03-17T02:02:30.709Z,0.90
2023-03-17T02:05:02.160Z,0.80
2023-03-17T02:07:33.571Z,0.80
2023-03-17T02:10:03.357Z,0.80
2023-03-17T02:12:35.134Z,0.78
2023-03-17T02:15:07.677Z,0.70
2023-03-17T02:17:37.820Z,0.70
2023-03-17T02:21:13.381Z,0.60
2023-03-17T02:23:45.116Z,0.60
2023-03-17T02:26:14.847Z,0.54
2023-03-17T02:28:45.734Z,0.50
2023-03-17T02:31:16.008Z,0.50
2023-03-17T02:33:46.681Z,0.50
2023-03-17T02:36:20.087Z,0.50
2023-03-17T02:38:50.356Z,0.50
2023-03-17T02:41:20.709Z,0.50
2023-03-17T02:43:51.549Z,0.50
2023-03-17T02:46:23.342Z,0.50
2023-03-17T02:48:54.809Z,0.50
2023-03-17T02:51:24.618Z,0.50
2023-03-17T02:53:54.612Z,0.50
2023-03-17T02:56:24.788Z,0.50
2023-03-17T02:58:55.285Z,0.50
2023-03-17T03:01:26.356Z,0.50
2023-03-17T03:03:56.436Z,0.50
2023-03-17T03:06:26.884Z,0.48
2023-03-17T03:08:55.768Z,0.40
2023-03-17T03:11:26.150Z,0.40
2023-03-17T03:13:55.629Z,0.40
2023-03-17T03:16:26.196Z,0.38
2023-03-17T03:18:57.092Z,0.30
2023-03-17T03:21:27.141Z,0.30
2023-03-17T03:23:57.181Z,0.30
2023-03-17T03:26:27.974Z,0.30
2023-03-17T03:28:59.533Z,0.28
2023-03-17T03:31:29.660Z,0.30
2023-03-17T03:33:59.425Z,0.30
2023-03-17T03:36:29.304Z,0.30
2023-03-17T03:39:00.439Z,0.30
2023-03-17T03:41:31.177Z,0.36
2023-03-17T03:44:01.308Z,0.40
2023-03-17T03:46:31.150Z,0.40
2023-03-17T03:49:00.961Z,0.40
2023-03-17T03:51:30.703Z,0.40
2023-03-17T03:54:01.214Z,0.40
2023-03-17T03:56:29.914Z,0.42
2023-03-17T03:58:59.820Z,0.50
2023-03-17T04:01:30.011Z,0.50
2023-03-17T04:03:59.981Z,0.50
2023-03-17T04:06:30.021Z,0.50
2023-03-17T04:08:59.727Z,0.50
2023-03-17T04:11:29.745Z,0.52
2023-03-17T04:13:59.653Z,0.50
2023-03-17T04:16:29.396Z,0.50
2023-03-17T04:18:59.534Z,0.50
2023-03-17T04:21:29.425Z,0.40
2023-03-17T04:24:00.092Z,0.40
2023-03-17T04:26:29.873Z,0.38
2023-03-17T04:29:00.287Z,0.30
2023-03-17T04:31:30.253Z,0.30
2023-03-17T04:33:59.985Z,0.20
2023-03-17T04:36:30.137Z,0.20
2023-03-17T04:38:59.863Z,0.20
2023-03-17T04:41:29.917Z,0.14
2023-03-17T04:43:59.747Z,0.10
2023-03-17T04:46:29.603Z,0.10
2023-03-17T04:48:59.651Z,0.10
2023-03-17T04:51:29.534Z,0.10
2023-03-17T04:54:00.156Z,0.10
2023-03-17T04:56:31.711Z,0.10
2023-03-17T04:59:02.273Z,0.10
2023-03-17T05:01:32.189Z,0.10
2023-03-17T05:04:02.132Z,0.10
2023-03-17T05:06:32.269Z,0.10
2023-03-17T05:09:02.165Z,0.10
2023-03-17T05:11:32.310Z,0.14
2023-03-17T05:14:02.350Z,0.16
2023-03-17T05:16:32.475Z,0.14
2023-03-17T05:19:02.286Z,0.20
2023-03-17T05:21:32.468Z,0.20
2023-03-17T05:24:02.219Z,0.20
2023-03-17T05:26:32.854Z,0.20
2023-03-17T05:29:02.741Z,0.22
2023-03-17T05:31:32.786Z,0.30
2023-03-17T05:34:03.617Z,0.30
2023-03-17T05:36:33.662Z,0.30
2023-03-17T05:39:03.917Z,0.36
2023-03-17T05:41:33.783Z,0.40
2023-03-17T05:44:04.278Z,0.50
2023-03-17T05:46:35.084Z,0.60
2023-03-17T05:49:05.082Z,0.70
2023-03-17T05:51:37.031Z,0.74
2023-03-17T05:54:08.353Z,1.04
2023-03-17T05:56:38.049Z,1.34
2023-03-17T05:59:07.850Z,1.36
2023-03-17T06:01:38.347Z,1.40
2023-03-17T06:04:08.693Z,1.42
2023-03-17T06:06:39.433Z,1.50
2023-03-17T06:09:09.192Z,1.60
2023-03-17T06:11:38.944Z,1.62
2023-03-17T06:14:08.804Z,1.70
2023-03-17T06:16:38.640Z,1.80
2023-03-17T06:19:08.415Z,1.88
2023-03-17T06:21:38.137Z,2.00
2023-03-17T06:24:09.740Z,2.10
2023-03-17T06:26:39.871Z,2.20
2023-03-17T06:29:10.889Z,2.32
2023-03-17T06:31:41.826Z,2.46
2023-03-17T06:34:11.589Z,2.50
2023-03-17T06:36:44.802Z,2.60
2023-03-17T06:39:15.829Z,2.70
2023-03-17T06:41:45.678Z,2.70
2023-03-17T06:44:15.546Z,2.80
2023-03-17T06:46:45.371Z,2.90
2023-03-17T06:49:15.409Z,2.98
2023-03-17T06:51:45.193Z,3.10
2023-03-17T06:54:14.942Z,3.20
2023-03-17T06:56:44.977Z,3.30
2023-03-17T06:59:14.743Z,3.40
2023-03-17T07:01:44.990Z,3.52
2023-03-17T07:04:14.913Z,3.70
2023-03-17T07:06:45.605Z,3.80
2023-03-17T07:09:16.575Z,3.80
2023-03-17T07:11:46.285Z,3.90
2023-03-17T07:14:16.047Z,4.00
2023-03-17T07:16:47.933Z,4.10
2023-03-17T07:19:17.979Z,4.20
2023-03-17T07:21:47.766Z,4.30
2023-03-17T07:24:17.670Z,4.40
2023-03-17T07:26:47.530Z,4.40
2023-03-17T07:29:22.187Z,4.50
2023-03-17T07:31:53.438Z,4.60
2023-03-17T07:34:23.854Z,4.70
2023-03-17T07:36:53.915Z,4.78
2023-03-17T07:39:27.149Z,4.80
2023-03-17T07:41:56.914Z,4.80
2023-03-17T07:44:28.390Z,4.82
2023-03-17T07:46:58.147Z,4.90
2023-03-17T07:49:40.849Z,5.00
2023-03-17T07:52:12.384Z,5.20
2023-03-17T07:54:43.272Z,5.30
2023-03-17T07:57:16.240Z,5.50
2023-03-17T07:59:46.770Z,5.60
2023-03-17T08:02:17.124Z,5.70
2023-03-17T08:04:47.078Z,5.90
2023-03-17T08:07:16.928Z,6.04
2023-03-17T08:09:47.317Z,6.20
2023-03-17T08:12:17.686Z,6.40
2023-03-17T08:14:48.168Z,6.50
2023-03-17T08:17:18.523Z,6.88
2023-03-17T08:19:47.357Z,7.10
2023-03-17T08:22:17.840Z,7.24
2023-03-17T08:24:46.681Z,7.44
2023-03-17T08:27:18.231Z,7.66
2023-03-17T08:29:49.365Z,7.80
2023-03-17T08:32:19.591Z,8.00
2023-03-17T08:34:48.933Z,8.18
2023-03-17T08:37:18.593Z,8.20
2023-03-17T08:39:49.084Z,8.44
2023-03-17T08:42:17.762Z,8.78
2023-03-17T08:44:47.423Z,9.10
2023-03-17T08:47:17.735Z,9.42
2023-03-17T08:49:47.350Z,9.78
2023-03-17T08:52:17.793Z,10.02
2023-03-17T08:54:48.288Z,10.12
2023-03-17T08:57:17.765Z,10.20
2023-03-17T08:59:47.830Z,10.14
2023-03-17T09:02:17.766Z,10.20
2023-03-17T09:04:48.799Z,10.30
2023-03-17T09:07:18.486Z,10.40
2023-03-17T09:09:49.230Z,10.54
2023-03-17T09:12:19.012Z,10.70
2023-03-17T09:14:50.079Z,10.70
2023-03-17T09:17:19.837Z,10.80
2023-03-17T09:19:49.628Z,11.02
2023-03-17T09:22:20.333Z,11.16
2023-03-17T09:24:50.236Z,11.30
2023-03-17T09:27:20.581Z,11.70
2023-03-17T09:29:49.335Z,12.10
2023-03-17T09:32:19.058Z,12.50
2023-03-17T09:34:51.479Z,12.88
2023-03-17T09:37:21.448Z,13.40
2023-03-17T09:39:52.214Z,13.84
2023-03-17T09:42:47.436Z,14.20
2023-03-17T09:45:31.251Z,14.50
2023-03-17T09:48:36.254Z,14.80
2023-03-17T09:51:10.280Z,15.30
2023-03-17T09:53:48.901Z,16.02
2023-03-17T09:56:20.749Z,16.76
2023-03-17T09:58:54.297Z,17.10
2023-03-17T10:01:25.040Z,17.52
2023-03-17T10:03:55.266Z,18.00
2023-03-17T10:06:36.314Z,18.12
2023-03-17T10:09:18.543Z,18.30
2023-03-17T10:11:53.553Z,18.00
2023-03-17T10:14:51.968Z,17.80
2023-03-17T10:17:24.064Z,18.10
2023-03-17T10:20:00.648Z,17.80
2023-03-17T10:22:37.064Z,17.42
2023-03-17T10:25:15.290Z,17.10
2023-03-17T10:27:50.960Z,16.74
2023-03-17T10:30:23.692Z,16.44
2023-03-17T10:32:54.578Z,16.40
2023-03-17T10:35:25.235Z,17.08
2023-03-17T10:38:11.859Z,18.26
2023-03-17T10:40:48.315Z,19.46
2023-03-17T10:43:28.580Z,20.38
2023-03-17T10:46:04.134Z,20.72
2023-03-17T10:48:39.658Z,20.76
2023-03-17T10:51:20.389Z,21.24
2023-03-17T10:53:54.194Z,22.00
2023-03-17T10:56:29.589Z,22.70
2023-03-17T10:59:07.211Z,22.70
2023-03-17T11:01:40.884Z,23.00
2023-03-17T11:04:32.720Z,22.90
2023-03-17T11:07:14.875Z,22.54
2023-03-17T11:09:48.568Z,22.42
2023-03-17T11:12:27.868Z,22.70
2023-03-17T11:15:02.861Z,22.80
2023-03-17T11:17:48.319Z,23.00
2023-03-17T11:20:39.505Z,23.10
2023-03-17T11:23:23.201Z,22.38
2023-03-17T11:26:01.989Z,21.54
2023-03-17T11:28:37.153Z,20.84
2023-03-17T11:31:14.800Z,20.34
2023-03-17T11:33:56.571Z,20.00
2023-03-17T11:36:45.044Z,20.48
2023-03-17T11:39:19.185Z,20.64
2023-03-17T11:42:05.378Z,20.74
2023-03-17T11:45:20.269Z,21.28
2023-03-17T11:48:06.677Z,21.66
2023-03-17T11:50:45.207Z,22.28
2023-03-17T11:53:36.634Z,22.54
2023-03-17T11:56:13.245Z,23.50
2023-03-17T11:58:45.010Z,23.52
2023-03-17T12:01:21.081Z,23.52
2023-03-17T12:03:59.112Z,23.10
2023-03-17T12:06:34.611Z,22.76
2023-03-17T12:09:12.626Z,22.64
2023-03-17T12:11:45.881Z,22.20
2023-03-17T12:14:28.669Z,21.86
2023-03-17T12:17:09.598Z,21.58
2023-03-17T12:19:57.902Z,21.50
2023-03-17T12:22:34.295Z,21.60
2023-03-17T12:25:18.898Z,21.90
2023-03-17T12:27:59.228Z,22.54
2023-03-17T12:30:38.231Z,22.58
2023-03-17T12:33:20.869Z,21.84
2023-03-17T12:35:51.566Z,21.88
2023-03-17T12:38:27.877Z,22.54
2023-03-17T12:41:31.128Z,23.66
2023-03-17T12:44:11.731Z,24.46
2023-03-17T12:47:04.315Z,25.22
2023-03-17T12:50:10.290Z,26.10
2023-03-17T12:52:56.598Z,25.40
2023-03-17T12:55:31.228Z,25.64
2023-03-17T12:58:04.184Z,26.08
2023-03-17T13:00:48.713Z,26.00
2023-03-17T13:03:25.536Z,25.90
2023-03-17T13:06:01.684Z,25.70
2023-03-17T13:08:34.518Z,25.52
2023-03-17T13:11:25.858Z,25.40
2023-03-17T13:14:26.568Z,25.20
2023-03-17T13:17:27.974Z,25.40
2023-03-17T13:20:12.059Z,25.64
2023-03-17T13:23:01.203Z,25.84
2023-03-17T13:25:35.401Z,25.70
2023-03-17T13:28:47.532Z,26.14
2023-03-17T13:31:37.340Z,25.86
2023-03-17T13:34:17.330Z,24.78
2023-03-17T13:37:01.187Z,24.36
2023-03-17T13:40:06.170Z,23.80
2023-03-17T13:42:53.674Z,23.16
2023-03-17T13:45:36.942Z,22.80
2023-03-17T13:48:34.568Z,22.70
2023-03-17T13:51:17.358Z,23.02
2023-03-17T13:53:52.194Z,23.36
2023-03-17T13:56:30.008Z,23.30
2023-03-17T13:59:14.538Z,23.10
2023-03-17T14:01:53.791Z,23.88
2023-03-17T14:04:29.761Z,24.50
2023-03-17T14:07:06.377Z,24.90
2023-03-17T14:09:39.832Z,25.20
2023-03-17T14:12:19.131Z,24.74
2023-03-17T14:14:55.827Z,24.40
2023-03-17T14:17:31.549Z,23.42
2023-03-17T14:20:21.561Z,22.60
2023-03-17T14:22:57.255Z,22.22
2023-03-17T14:25:33.525Z,21.66
2023-03-17T14:28:10.749Z,20.84
2023-03-17T14:30:50.541Z,20.04
2023-03-17T14:33:25.526Z,19.04
2023-03-17T14:35:59.008Z,18.12
2023-03-17T14:38:31.892Z,17.58
2023-03-17T14:41:08.023Z,17.02
2023-03-17T14:43:38.260Z,16.60
2023-03-17T14:46:13.416Z,16.10
2023-03-17T14:48:47.488Z,15.70
2023-03-17T14:51:26.679Z,15.36
2023-03-17T14:54:01.043Z,15.00
2023-03-17T14:56:37.422Z,14.72
2023-03-17T14:59:16.631Z,14.50
2023-03-17T15:01:48.109Z,14.30
2023-03-17T15:04:22.605Z,14.00
2023-03-17T15:06:54.405Z,13.90
2023-03-17T15:09:28.940Z,13.70
2023-03-17T15:12:04.662Z,13.60
2023-03-17T15:14:38.825Z,13.60
2023-03-17T15:17:18.646Z,13.60
2023-03-17T15:19:51.944Z,13.50
2023-03-17T15:22:29.989Z,13.50
2023-03-17T15:25:17.363Z,13.42
2023-03-17T15:27:49.038Z,13.40
2023-03-17T15:30:20.924Z,13.36
2023-03-17T15:33:00.136Z,13.30
2023-03-17T15:35:30.564Z,13.20
2023-03-17T15:37:59.618Z,13.20
2023-03-17T15:40:29.746Z,13.04
2023-03-17T15:43:00.132Z,13.00
2023-03-17T15:45:30.145Z,12.90
2023-03-17T15:48:00.749Z,12.80
2023-03-17T15:50:33.619Z,12.80
2023-03-17T15:53:03.773Z,12.70
2023-03-17T15:55:33.570Z,12.66
2023-03-17T15:58:03.675Z,12.60
2023-03-17T16:00:34.514Z,12.50
2023-03-17T16:03:16.751Z,12.46
2023-03-17T16:05:47.022Z,12.40
2023-03-17T16:08:17.740Z,12.30
2023-03-17T16:10:48.100Z,12.20
2023-03-17T16:13:18.799Z,12.10
2023-03-17T16:15:53.963Z,12.00
2023-03-17T16:18:31.704Z,11.90
2023-03-17T16:21:03.737Z,11.80
2023-03-17T16:23:37.339Z,11.70
2023-03-17T16:26:15.703Z,11.60
2023-03-17T16:28:48.625Z,11.50
2023-03-17T16:31:26.420Z,11.40
2023-03-17T16:33:57.229Z,11.30
2023-03-17T16:36:27.238Z,11.20
2023-03-17T16:38:57.808Z,11.16
2023-03-17T16:41:29.020Z,11.10
2023-03-17T16:44:03.340Z,11.00
2023-03-17T16:46:35.615Z,10.90
2023-03-17T16:49:06.326Z,10.80
2023-03-17T16:51:35.033Z,10.70
2023-03-17T16:54:05.382Z,10.60
2023-03-17T16:56:35.470Z,10.54
2023-03-17T16:59:07.385Z,10.44
2023-03-17T17:01:37.165Z,10.40
2023-03-17T17:04:10.905Z,10.30
2023-03-17T17:06:40.730Z,10.20
2023-03-17T17:09:10.854Z,10.10
2023-03-17T17:11:40.729Z,10.10
2023-03-17T17:14:10.685Z,10.00
2023-03-17T17:16:40.751Z,9.96
2023-03-17T17:19:16.543Z,9.90
2023-03-17T17:21:46.553Z,9.86
2023-03-17T17:24:16.754Z,9.80
2023-03-17T17:26:46.656Z,9.72
2023-03-17T17:29:16.790Z,9.70
2023-03-17T17:31:46.654Z,9.70
2023-03-17T17:34:16.599Z,9.60
2023-03-17T17:36:47.551Z,9.60
2023-03-17T17:39:17.468Z,9.50
2023-03-17T17:41:47.946Z,9.50
2023-03-17T17:44:18.628Z,9.50
2023-03-17T17:46:49.032Z,9.40
2023-03-17T17:49:19.057Z,9.40
2023-03-17T17:51:48.908Z,9.40
2023-03-17T17:54:19.481Z,9.30
2023-03-17T17:56:50.032Z,9.30
2023-03-17T17:59:20.538Z,9.20
2023-03-17T18:01:49.260Z,9.20
2023-03-17T18:04:20.921Z,9.10
2023-03-17T18:06:51.128Z,9.02
2023-03-17T18:09:21.582Z,9.00
2023-03-17T18:11:51.475Z,8.90
2023-03-17T18:14:21.630Z,8.80
2023-03-17T18:16:51.886Z,8.70
2023-03-17T18:19:22.746Z,8.68
2023-03-17T18:21:53.345Z,8.60
2023-03-17T18:24:23.732Z,8.50
2023-03-17T18:26:53.618Z,8.40
2023-03-17T18:29:23.420Z,8.40
2023-03-17T18:31:55.513Z,8.30
2023-03-17T18:34:29.695Z,8.30
2023-03-17T18:37:01.849Z,8.24
2023-03-17T18:39:34.246Z,8.20
2023-03-17T18:42:05.293Z,8.20
2023-03-17T18:44:36.235Z,8.20
2023-03-17T18:47:08.621Z,8.10
2023-03-17T18:49:38.417Z,8.10
2023-03-17T18:52:08.565Z,8.00
2023-03-17T18:54:39.171Z,8.00
2023-03-17T18:57:10.694Z,7.90
2023-03-17T18:59:40.867Z,7.90
2023-03-17T19:02:11.634Z,7.82
2023-03-17T19:04:45.945Z,7.80
2023-03-17T19:07:16.664Z,7.80
2023-03-17T19:09:47.960Z,7.70
2023-03-17T19:12:18.226Z,7.70
2023-03-17T19:14:48.362Z,7.70
2023-03-17T19:17:18.596Z,7.60
2023-03-17T19:19:49.827Z,7.60
2023-03-17T19:22:20.938Z,7.54
2023-03-17T19:24:50.865Z,7.50
2023-03-17T19:27:21.293Z,7.50
2023-03-17T19:29:53.537Z,7.50
2023-03-17T19:32:23.762Z,7.46
2023-03-17T19:34:54.160Z,7.46
2023-03-17T19:37:23.984Z,7.40
2023-03-17T19:39:54.489Z,7.40
2023-03-17T19:42:23.226Z,7.40
2023-03-17T19:44:53.042Z,7.40
2023-03-17T19:47:22.995Z,7.40
2023-03-17T19:49:53.297Z,7.40
2023-03-17T19:52:23.326Z,7.40
2023-03-17T19:54:53.447Z,7.40
2023-03-17T19:57:23.562Z,7.40
2023-03-17T19:59:53.613Z,7.38
2023-03-17T20:02:23.485Z,7.30
2023-03-17T20:04:54.080Z,7.30
2023-03-17T20:07:22.936Z,7.30
2023-03-17T20:09:53.557Z,7.20
2023-03-17T20:12:24.679Z,7.20
2023-03-17T20:14:54.592Z,7.10
2023-03-17T20:17:24.338Z,7.06
2023-03-17T20:19:54.381Z,7.00
2023-03-17T20:22:26.544Z,7.00
2023-03-17T20:24:57.628Z,6.90
2023-03-17T20:27:27.497Z,6.90
2023-03-17T20:29:58.248Z,6.90
2023-03-17T20:32:29.436Z,6.90
2023-03-17T20:34:59.704Z,6.80
2023-03-17T20:37:32.027Z,6.80
2023-03-17T20:40:04.241Z,6.80
2023-03-17T20:42:34.195Z,6.70
2023-03-17T20:45:04.505Z,6.70
2023-03-17T20:47:34.366Z,6.60
2023-03-17T20:50:05.819Z,6.60
2023-03-17T20:52:39.262Z,6.50
2023-03-17T20:55:13.390Z,6.50
2023-03-17T20:57:47.003Z,6.40
2023-03-17T21:00:20.789Z,6.40
2023-03-17T21:02:53.669Z,6.40
2023-03-17T21:05:26.533Z,6.30
2023-03-17T21:07:57.126Z,6.30
2023-03-17T21:10:25.939Z,6.20
2023-03-17T21:12:55.658Z,6.10
2023-03-17T21:15:25.469Z,6.04
2023-03-17T21:17:55.375Z,6.00
2023-03-17T21:20:25.717Z,5.98
2023-03-17T21:22:56.120Z,5.90
2023-03-17T21:25:26.737Z,5.90
2023-03-17T21:27:56.560Z,5.90
2023-03-17T21:30:26.420Z,5.88
2023-03-17T21:32:56.248Z,5.80
2023-03-17T21:35:26.249Z,5.80
2023-03-17T21:37:56.620Z,5.70
2023-03-17T21:40:26.408Z,5.70
2023-03-17T21:42:57.025Z,5.60
2023-03-17T21:45:28.034Z,5.60
2023-03-17T21:47:58.030Z,5.50
2023-03-17T21:50:28.249Z,5.50
2023-03-17T21:52:58.058Z,5.44
2023-03-17T21:55:30.623Z,5.40
2023-03-17T21:58:00.401Z,5.40
2023-03-17T22:00:42.667Z,5.34
2023-03-17T22:03:14.675Z,5.30
2023-03-17T22:05:46.588Z,5.30
2023-03-17T22:08:16.535Z,5.30
2023-03-17T22:10:46.370Z,5.30
2023-03-17T22:13:16.406Z,5.30
2023-03-17T22:15:46.208Z,5.26
2023-03-17T22:18:17.436Z,5.20
2023-03-17T22:20:47.258Z,5.20
2023-03-17T22:23:17.547Z,5.12
2023-03-17T22:25:50.370Z,5.10
2023-03-17T22:28:20.401Z,5.08
2023-03-17T22:30:51.019Z,5.00
2023-03-17T22:33:20.847Z,5.00
2023-03-17T22:35:50.767Z,5.00
2023-03-17T22:38:24.711Z,5.00
2023-03-17T22:41:05.423Z,5.00
2023-03-17T22:43:34.381Z,5.00
2023-03-17T22:46:04.393Z,5.00
2023-03-17T22:48:35.444Z,5.00
2023-03-17T22:51:07.815Z,5.00
2023-03-17T22:53:38.791Z,5.00
2023-03-17T22:56:11.075Z,5.00
2023-03-17T22:58:41.293Z,5.00
2023-03-17T23:01:12.982Z,5.00
2023-03-17T23:03:45.169Z,4.92
2023-03-17T23:06:15.872Z,4.90
2023-03-17T23:08:47.179Z,4.90
2023-03-17T23:11:20.690Z,4.90
2023-03-17T23:13:52.072Z,4.90
2023-03-17T23:16:22.334Z,4.88
2023-03-17T23:18:52.143Z,4.80
2023-03-17T23:21:28.332Z,4.80
2023-03-17T23:23:58.894Z,4.70
2023-03-17T23:26:29.524Z,4.60
2023-03-17T23:28:59.867Z,4.60
2023-03-17T23:31:29.780Z,4.54
2023-03-17T23:33:59.680Z,4.50
2023-03-17T23:36:30.102Z,4.44
2023-03-17T23:39:02.981Z,4.40
2023-03-17T23:41:33.038Z,4.40
2023-03-17T23:44:04.903Z,4.34
2023-03-17T23:46:36.080Z,4.30
2023-03-17T23:49:07.130Z,4.30
2023-03-17T23:51:36.886Z,4.20
2023-03-17T23:54:09.022Z,4.20
2023-03-17T23:56:40.412Z,4.20
2023-03-17T23:59:11.450Z,4.12
